createdAt,value
2022-07-26T00:04:45.955Z,96697.59
2022-07-26T00:09:54.069Z,96697.75
2022-07-26T00:14:58.109Z,96697.13
2022-07-26T00:20:01.592Z,96693.31
2022-07-26T00:25:09.312Z,96694.91
2022-07-26T00:30:14.083Z,96689.78
2022-07-26T00:35:24.949Z,96688.66
2022-07-26T00:40:28.508Z,96677.56
2022-07-26T00:45:31.871Z,96693.94
2022-07-26T00:50:35.952Z,96688.81
2022-07-26T00:55:39.901Z,96686.88
2022-07-26T01:00:43.751Z,96690.75
2022-07-26T01:05:47.787Z,96693.00
2022-07-26T01:10:51.927Z,96697.19
2022-07-26T01:15:55.774Z,96695.91
2022-07-26T01:21:13.182Z,96697.03
2022-07-26T01:26:17.890Z,96702.81
2022-07-26T01:31:27.466Z,96699.94
2022-07-26T01:36:31.162Z,96709.53
2022-07-26T01:41:37.430Z,96696.88
2022-07-26T01:46:41.874Z,96704.91
2022-07-26T01:51:45.383Z,96711.31
2022-07-26T01:56:48.906Z,96702.66
2022-07-26T02:01:52.538Z,96697.88
2022-07-26T02:06:56.381Z,96705.25
2022-07-26T02:11:59.892Z,96699.63
2022-07-26T02:17:10.817Z,96704.75
2022-07-26T02:22:14.392Z,96700.44
2022-07-26T02:27:18.879Z,96701.56
2022-07-26T02:32:22.357Z,96694.97
2022-07-26T02:37:25.689Z,96704.75
2022-07-26T02:42:29.083Z,96706.22
2022-07-26T02:47:32.858Z,96706.53
2022-07-26T02:52:36.276Z,96715.03
2022-07-26T02:57:46.404Z,96717.28
2022-07-26T03:02:53.715Z,96723.88
2022-07-26T03:08:07.569Z,96716.81
2022-07-26T03:13:10.948Z,96726.44
2022-07-26T03:18:14.575Z,96732.06
2022-07-26T03:23:18.037Z,96729.31
2022-07-26T03:28:21.700Z,96732.19
2022-07-26T03:33:25.245Z,96736.69
2022-07-26T03:38:36.940Z,96740.72
2022-07-26T03:43:40.777Z,96740.81
2022-07-26T03:48:44.641Z,96743.72
2022-07-26T03:53:48.030Z,96741.97
2022-07-26T03:59:15.328Z,96742.75
2022-07-26T04:04:18.984Z,96730.41
2022-07-26T04:09:28.926Z,96737.47
2022-07-26T04:14:32.453Z,96741.81
2022-07-26T04:19:37.499Z,96737.31
2022-07-26T04:24:43.615Z,96741.13
2022-07-26T04:29:50.339Z,96743.81
2022-07-26T04:34:59.433Z,96753.38
2022-07-26T04:40:03.694Z,96750.94
2022-07-26T04:45:08.875Z,96755.25
2022-07-26T04:50:13.147Z,96761.59
2022-07-26T04:55:19.365Z,96766.97
2022-07-26T05:00:24.095Z,96757.84
2022-07-26T05:05:30.312Z,96776.38
2022-07-26T05:10:37.285Z,96776.22
2022-07-26T05:15:42.267Z,96773.88
2022-07-26T05:20:46.567Z,96776.41
2022-07-26T05:25:50.367Z,96779.13
2022-07-26T05:30:53.767Z,96784.81
2022-07-26T05:35:57.450Z,96784.25
2022-07-26T05:41:01.582Z,96781.78
2022-07-26T05:46:09.588Z,96776.00
2022-07-26T05:51:13.587Z,96777.00
2022-07-26T05:56:17.129Z,96784.88
2022-07-26T06:01:20.914Z,96782.59
2022-07-26T06:06:26.716Z,96787.25
2022-07-26T06:11:30.197Z,96780.56
2022-07-26T06:16:33.886Z,96787.81
2022-07-26T06:21:37.555Z,96790.31
2022-07-26T06:26:41.119Z,96798.19
2022-07-26T06:31:45.581Z,96795.53
2022-07-26T06:36:49.382Z,96788.78
2022-07-26T06:41:53.024Z,96796.19
2022-07-26T06:46:59.823Z,96795.75
2022-07-26T06:52:03.288Z,96798.59
2022-07-26T06:57:06.485Z,96801.81
2022-07-26T07:02:10.522Z,96803.19
2022-07-26T07:07:15.033Z,96807.56
2022-07-26T07:12:20.159Z,96798.59
2022-07-26T07:17:24.520Z,96792.84
2022-07-26T07:22:27.918Z,96794.16
2022-07-26T07:27:32.151Z,96797.81
2022-07-26T07:32:38.580Z,96805.19
2022-07-26T07:37:52.746Z,96803.19
2022-07-26T07:42:57.869Z,96796.75
2022-07-26T07:48:01.257Z,96803.94
2022-07-26T07:53:04.845Z,96805.72
2022-07-26T07:58:09.551Z,96810.06
2022-07-26T08:03:13.168Z,96802.38
2022-07-26T08:08:22.823Z,96805.78
2022-07-26T08:13:26.523Z,96801.69
2022-07-26T08:18:30.588Z,96807.06
2022-07-26T08:23:34.323Z,96801.03
2022-07-26T08:28:47.316Z,96799.78
2022-07-26T08:33:52.485Z,96805.31
2022-07-26T08:38:56.191Z,96804.59
2022-07-26T08:44:12.196Z,96797.47
2022-07-26T08:49:21.487Z,96798.59
2022-07-26T08:54:24.968Z,96794.22
2022-07-26T08:59:28.778Z,96789.03
2022-07-26T09:04:43.164Z,96795.31
2022-07-26T09:10:12.670Z,96791.69
2022-07-26T09:15:23.374Z,96792.00
2022-07-26T09:20:29.265Z,96797.69
2022-07-26T09:25:38.797Z,96794.41
2022-07-26T09:30:57.957Z,96794.00
2022-07-26T09:36:07.268Z,96787.47
2022-07-26T09:41:30.550Z,96782.84
2022-07-26T09:46:34.510Z,96788.28
2022-07-26T09:51:41.590Z,96786.25
2022-07-26T09:56:53.174Z,96789.81
2022-07-26T10:02:05.170Z,96788.94
2022-07-26T10:07:10.715Z,96788.50
2022-07-26T10:12:16.939Z,96789.19
2022-07-26T10:17:31.633Z,96792.31
2022-07-26T10:22:41.093Z,96784.31
2022-07-26T10:27:56.391Z,96783.06
2022-07-26T10:33:07.335Z,96787.69
2022-07-26T10:38:15.334Z,96786.84
2022-07-26T10:49:05.257Z,96779.84
2022-07-26T10:54:11.705Z,96779.03
2022-07-26T10:59:54.318Z,96771.78
2022-07-26T11:05:12.938Z,96778.44
2022-07-26T11:10:16.858Z,96775.91
2022-07-26T11:15:20.764Z,96772.22
2022-07-26T11:20:29.860Z,96768.19
2022-07-26T11:25:33.859Z,96764.13
2022-07-26T11:30:55.907Z,96760.09
2022-07-26T11:35:59.362Z,96762.81
2022-07-26T11:41:02.772Z,96777.13
2022-07-26T11:46:07.055Z,96757.50
2022-07-26T11:51:16.053Z,96761.59
2022-07-26T11:56:29.306Z,96753.06
2022-07-26T12:01:33.158Z,96749.81
2022-07-26T12:06:39.437Z,96748.16
2022-07-26T12:11:43.139Z,96751.56
2022-07-26T12:16:47.794Z,96752.22
2022-07-26T12:22:13.379Z,96756.78
2022-07-26T12:27:22.151Z,96755.34
2022-07-26T12:32:38.396Z,96760.28
2022-07-26T12:37:51.146Z,96749.84
2022-07-26T12:43:01.075Z,96753.34
2022-07-26T12:48:09.281Z,96753.44
2022-07-26T12:53:13.136Z,96747.97
2022-07-26T12:58:16.707Z,96747.75
2022-07-26T13:03:20.557Z,96756.19
2022-07-26T13:08:24.258Z,96740.97
2022-07-26T13:13:28.147Z,96746.72
2022-07-26T13:18:31.687Z,96744.22
2022-07-26T13:23:36.705Z,96741.94
2022-07-26T13:28:41.788Z,96737.94
2022-07-26T13:33:47.885Z,96731.91
2022-07-26T13:38:51.509Z,96724.53
2022-07-26T13:43:55.292Z,96723.53
2022-07-26T13:49:01.621Z,96727.38
2022-07-26T13:54:05.558Z,96729.63
2022-07-26T13:59:09.828Z,96725.53
2022-07-26T14:04:14.687Z,96735.91
2022-07-26T14:09:19.952Z,96725.66
2022-07-26T14:14:23.501Z,96730.63
2022-07-26T14:19:26.883Z,96719.19
2022-07-26T14:24:30.361Z,96728.13
2022-07-26T14:29:33.533Z,96722.91
2022-07-26T14:34:37.025Z,96719.91
2022-07-26T14:39:42.456Z,96736.19
2022-07-26T14:44:48.234Z,96724.56
2022-07-26T14:49:51.859Z,96729.94
2022-07-26T14:54:55.701Z,96723.31
2022-07-26T14:59:59.664Z,96719.41
2022-07-26T15:05:03.364Z,96726.75
2022-07-26T15:10:08.899Z,96721.88
2022-07-26T15:15:12.549Z,96724.00
2022-07-26T15:20:16.307Z,96722.66
2022-07-26T15:25:20.598Z,96719.63
2022-07-26T15:30:25.640Z,96716.22
2022-07-26T15:35:32.130Z,96714.88
2022-07-26T15:40:39.650Z,96713.53
2022-07-26T15:45:43.017Z,96718.47
2022-07-26T15:50:49.382Z,96725.69
2022-07-26T15:55:53.680Z,96719.91
2022-07-26T16:00:57.057Z,96712.59
2022-07-26T16:06:05.739Z,96729.66
2022-07-26T16:11:09.966Z,96720.28
2022-07-26T16:16:14.180Z,96733.31
2022-07-26T16:21:18.328Z,96729.44
2022-07-26T16:26:22.089Z,96738.25
2022-07-26T16:31:25.654Z,96737.59
2022-07-26T16:36:29.065Z,96731.41
2022-07-26T16:41:32.405Z,96731.41
2022-07-26T16:46:35.957Z,96733.88
2022-07-26T16:51:39.495Z,96741.44
2022-07-26T16:56:43.857Z,96740.59
2022-07-26T17:01:47.478Z,96746.16
2022-07-26T17:07:14.648Z,96745.81
2022-07-26T17:12:15.208Z,96746.69
2022-07-26T17:17:18.554Z,96744.06
2022-07-26T17:22:22.290Z,96748.09
2022-07-26T17:27:25.756Z,96754.28
2022-07-26T17:32:29.486Z,96756.72
2022-07-26T17:37:32.757Z,96771.78
2022-07-26T17:42:37.813Z,96777.44
2022-07-26T17:47:42.393Z,96775.72
2022-07-26T17:52:46.036Z,96772.84
2022-07-26T17:57:55.683Z,96779.63
2022-07-26T18:02:59.271Z,96770.72
2022-07-26T18:08:02.628Z,96782.97
2022-07-26T18:13:06.111Z,96776.44
2022-07-26T18:18:09.460Z,96779.38
2022-07-26T18:23:12.813Z,96781.47
2022-07-26T18:28:16.697Z,96788.25
2022-07-26T18:33:20.298Z,96789.72
2022-07-26T18:38:23.700Z,96778.97
2022-07-26T18:43:27.655Z,96781.25
2022-07-26T18:48:31.686Z,96788.97
2022-07-26T18:53:36.255Z,96788.34
2022-07-26T18:58:39.786Z,96796.75
2022-07-26T19:03:43.586Z,96798.19
2022-07-26T19:08:47.561Z,96798.88
2022-07-26T19:13:50.996Z,96800.31
2022-07-26T19:18:57.478Z,96801.13
2022-07-26T19:24:01.207Z,96801.13
2022-07-26T19:29:04.822Z,96795.66
2022-07-26T19:34:09.287Z,96795.19
2022-07-26T19:39:13.184Z,96784.09
2022-07-26T19:44:17.412Z,96784.78
2022-07-26T19:49:20.995Z,96779.94
2022-07-26T19:54:25.242Z,96779.03
2022-07-26T19:59:28.980Z,96791.72
2022-07-26T20:04:32.522Z,96782.28
2022-07-26T20:09:36.285Z,96779.38
2022-07-26T20:14:40.359Z,96783.56
2022-07-26T20:19:44.037Z,96784.34
2022-07-26T20:24:47.435Z,96785.78
2022-07-26T20:29:51.692Z,96777.94
2022-07-26T20:34:56.198Z,96774.41
2022-07-26T20:39:59.409Z,96772.00
2022-07-26T20:45:05.036Z,96779.41
2022-07-26T20:50:14.707Z,96767.38
2022-07-26T20:55:18.272Z,96764.50
2022-07-26T21:00:22.066Z,96760.50
2022-07-26T21:05:29.693Z,96757.25
2022-07-26T21:10:36.191Z,96759.53
2022-07-26T21:15:40.189Z,96765.31
2022-07-26T21:20:43.899Z,96766.47
2022-07-26T21:25:47.632Z,96762.09
2022-07-26T21:30:51.105Z,96763.22
2022-07-26T21:35:54.446Z,96757.13
2022-07-26T21:40:59.565Z,96758.13
2022-07-26T21:46:08.965Z,96750.91
2022-07-26T21:51:15.689Z,96746.09
2022-07-26T21:56:21.431Z,96738.91
2022-07-26T22:01:28.181Z,96746.59
2022-07-26T22:06:31.741Z,96745.78
2022-07-26T22:11:35.482Z,96732.47
2022-07-26T22:16:39.363Z,96730.09
2022-07-26T22:21:42.944Z,96729.28
2022-07-26T22:26:46.606Z,96719.81
2022-07-26T22:31:50.338Z,96711.94
2022-07-26T22:36:55.100Z,96712.75
2022-07-26T22:42:14.744Z,96715.34
2022-07-26T22:47:18.764Z,96710.84
2022-07-26T22:52:21.991Z,96711.16
2022-07-26T22:57:26.060Z,96699.44
2022-07-26T23:02:29.779Z,96708.13
2022-07-26T23:07:33.451Z,96704.06
2022-07-26T23:12:37.770Z,96699.28
2022-07-26T23:17:41.690Z,96701.03
2022-07-26T23:22:45.813Z,96705.56
2022-07-26T23:27:49.450Z,96702.66
2022-07-26T23:32:53.049Z,96705.41
2022-07-26T23:37:56.701Z,96716.97
2022-07-26T23:43:00.081Z,96704.75
2022-07-26T23:48:03.752Z,96708.78
2022-07-26T23:53:07.736Z,96705.25
2022-07-26T23:58:11.702Z,96705.09
